Brangus — WDB4516 — position and weather

sailwx.info

Track history (hours):
 
Tides and Currents Weather Stations Pressure Air Temp Water Temp Dewpoint Dewpoint Depression Visibility Wind Speed Wind Dir Waves Ship Positions

Brangus

Owner: Great Lakes Dredge & Dock Company, Oak Brook, IL. More information available from US FCC via Universal Licensing System and Coast Guard Vessel Documentation Center.

Last reported at 2016-May-27 22:33 UTC. Time now 2016-May-28 06:01 UTC.
Position N 39°55' W 074°03'.

; draft 3 m.

MMSI: 366899270.

Date/timePositionNaut miles runAvg speedWind from/ knotsBaromVisibWave heightAir tempDewpointWater temp
2016-May-27 22:33N 39°55' W 074°03'9 8.8
2016-May-27 21:34N 39°47' W 074°05'2 2.0
2016-May-27 20:33N 39°45' W 074°07'1 0.5
2016-May-27 19:34N 39°46' W 074°07'0 0.0
2016-May-27 18:33N 39°46' W 074°07'0 0.0
2016-May-27 17:34N 39°46' W 074°07'0 0.0
2016-May-27 16:34N 39°46' W 074°07'0 0.4
2016-May-27 15:34N 39°45' W 074°07'0 0.2
2016-May-27 14:34N 39°45' W 074°07'0 0.0
2016-May-27 13:34N 39°45' W 074°07'0 0.0
2016-May-27 12:34N 39°45' W 074°07'0 0.0
2016-May-27 11:34N 39°45' W 074°07'0 0.0
2016-May-27 10:34N 39°45' W 074°07'0 0.0
2016-May-27 09:34N 39°45' W 074°07'0 0.0
2016-May-27 08:34N 39°45' W 074°07'0 0.0
2016-May-27 07:34N 39°45' W 074°07'0 0.0
2016-May-27 06:33N 39°45' W 074°07'0 0.0
2016-May-27 05:34N 39°45' W 074°07'0 0.0
2016-May-27 04:33N 39°45' W 074°07'0 0.0
2016-May-27 03:33N 39°45' W 074°07'0 0.0
2016-May-27 02:33N 39°45' W 074°07'0 0.0
2016-May-27 01:33N 39°45' W 074°07'1 1.1
2016-May-27 00:34N 39°46' W 074°07'2 2.2
2016-May-26 23:34N 39°45' W 074°05'5 5.2
2016-May-26 22:34N 39°40' W 074°08'0 0.1
2016-May-26 21:34N 39°40' W 074°08'1 0.5
2016-May-26 20:33N 39°40' W 074°09'0 0.3
2016-May-26 19:33N 39°40' W 074°09'0 0.2
2016-May-26 18:34N 39°40' W 074°09'0 0.2
2016-May-26 17:34N 39°40' W 074°09'0 0.3
2016-May-26 16:34N 39°40' W 074°09'0 0.1
2016-May-26 15:34N 39°40' W 074°09'0 0.1
2016-May-26 14:34N 39°40' W 074°09'2 1.9
2016-May-26 13:33N 39°41' W 074°08'5 4.6
2016-May-26 12:33N 39°46' W 074°06'1 1.0
2016-May-26 11:34N 39°45' W 074°07'0 0.0
2016-May-26 10:25N 39°45' W 074°07'0 0.0
2016-May-26 09:32N 39°45' W 074°07'0 0.0
2016-May-26 08:33N 39°45' W 074°07'0 0.0
2016-May-26 07:33N 39°45' W 074°07'0 0.0
2016-May-26 06:33N 39°45' W 074°07'0 0.0
2016-May-26 05:33N 39°45' W 074°07'0 0.0
2016-May-26 04:34N 39°45' W 074°07'0 0.0
2016-May-26 03:34N 39°45' W 074°07'0 0.0
2016-May-26 02:34N 39°45' W 074°07'0 0.0
2016-May-26 01:31N 39°45' W 074°07'0 0.0
2016-May-26 00:34N 39°45' W 074°07'0 0.0
2016-May-25 23:34N 39°45' W 074°07'0 0.0
2016-May-25 22:28N 39°45' W 074°07'0 0.0
2016-May-25 21:33N 39°45' W 074°07'0 0.0
2016-May-25 20:33N 39°45' W 074°07'0 0.0
2016-May-25 19:34N 39°45' W 074°07'1 1.1
2016-May-25 18:33N 39°46' W 074°07'2 2.3
2016-May-25 17:34N 39°44' W 074°05'5 4.9
2016-May-25 16:34N 39°40' W 074°08'5 4.8
2016-May-25 15:34N 39°36' W 074°12'1 0.8
2016-May-25 14:10N 39°35' W 074°13'3 4.3
2016-May-25 13:33N 39°37' W 074°11'5 4.8
2016-May-25 12:34N 39°41' W 074°07'5 4.7
2016-May-25 11:33N 39°46' W 074°04'3 2.7
2016-May-25 10:34N 39°48' W 074°04'0 0.4
2016-May-25 09:24N 39°48' W 074°04'2 2.4
2016-May-25 08:34N 39°50' W 074°03'2 1.5
2016-May-25 07:34N 39°49' W 074°02'2 1.1
2016-May-25 05:34N 39°51' W 074°04'3 2.8
2016-May-25 04:32N 39°54' W 074°03'35 1.7
2016-May-24 08:05N 40°29' W 074°03'3 5.0
2016-May-24 07:30N 40°32' W 074°02'6 6.7
2016-May-24 06:33N 40°38' W 074°04'4 4.1
2016-May-24 05:33N 40°38' W 074°09'0 0.0
2016-May-24 04:33N 40°38' W 074°09'0 0.0
2016-May-24 03:33N 40°38' W 074°09'0 0.0
2016-May-24 02:33N 40°38' W 074°09'0 0.0
2016-May-24 01:33N 40°38' W 074°09'0 0.0
2016-May-24 00:33N 40°38' W 074°09'0 0.0
2016-May-23 23:33N 40°38' W 074°09'0 0.0
2016-May-23 21:32N 40°38' W 074°09'0 0.0
2016-May-23 20:21N 40°38' W 074°09'1 0.3
2016-May-23 17:33N 40°39' W 074°08'4 4.3
2016-May-23 16:33N 40°39' W 074°02'4 3.6
2016-May-23 15:30N 40°39' W 074°07'1 1.3
2016-May-23 14:33N 40°38' W 074°09'0 0.0
2016-May-23 10:30N 40°38' W 074°09'0 0.0
2016-May-23 09:30N 40°38' W 074°09'0 0.0
2016-May-23 07:33N 40°38' W 074°09'0 0.0
2016-May-23 06:33N 40°38' W 074°09'0 0.0
2016-May-23 00:22N 40°38' W 074°09'0 0.0
2016-May-22 15:33N 40°38' W 074°09'0 0.0
2016-May-22 14:33N 40°38' W 074°09'3 0.1
2016-May-21 19:33N 40°39' W 074°06'32 7.6
2016-May-21 15:24N 40°08' W 074°00'9 8.8
2016-May-21 14:22N 39°59' W 074°02'7 8.7
2016-May-21 13:34N 39°52' W 074°04'6 6.4
2016-May-21 12:34N 39°46' W 074°07'1 0.5
2016-May-21 11:33N 39°45' W 074°07'0 0.0
2016-May-21 10:33N 39°45' W 074°07'0 0.0
2016-May-21 09:33N 39°45' W 074°07'0 0.0
2016-May-21 08:33N 39°45' W 074°07'0 0.0
2016-May-21 07:33N 39°45' W 074°07'0 0.0
2016-May-21 04:33N 39°45' W 074°07'0 0.0
2016-May-21 03:34N 39°45' W 074°07'0 0.0
2016-May-21 02:24N 39°45' W 074°07'0 0.0
2016-May-21 01:33N 39°45' W 074°07'2 1.5
2016-May-21 00:33N 39°45' W 074°05'5 5.3
2016-May-20 23:34N 39°41' W 074°08'1 0.6
2016-May-20 22:34N 39°40' W 074°09'0 0.3
2016-May-20 21:34N 39°40' W 074°09'2 2.4
2016-May-20 20:34N 39°38' W 074°11'2 1.7
2016-May-20 19:34N 39°37' W 074°12'2 2.0
2016-May-20 18:34N 39°35' W 074°13'3 3.2
2016-May-20 17:34N 39°32' W 074°15'1 1.4
2016-May-20 16:33N 39°33' W 074°14'6 5.8
2016-May-20 15:34N 39°38' W 074°10'6 5.9
2016-May-20 14:34N 39°43' W 074°06'2 2.0
2016-May-20 13:34N 39°45' W 074°07'1 1.4
2016-May-20 12:33N 39°46' W 074°05'2 1.6
2016-May-20 11:34N 39°46' W 074°07'1 0.7
2016-May-20 10:34N 39°45' W 074°07'0 0.0
2016-May-20 09:34N 39°45' W 074°07'0 0.0
2016-May-20 08:33N 39°45' W 074°07'0 0.0
2016-May-20 07:34N 39°45' W 074°07'0 0.0
2016-May-20 06:34N 39°45' W 074°07'0 0.0
2016-May-20 05:33N 39°45' W 074°07'0 0.0
2016-May-20 04:34N 39°45' W 074°07'0 0.0
2016-May-20 03:34N 39°45' W 074°07'0 0.0
2016-May-20 02:33N 39°45' W 074°07'0 0.0
2016-May-20 01:34N 39°45' W 074°07'0 0.0
2016-May-20 00:34N 39°45' W 074°07'0 0.0
2016-May-19 23:33N 39°45' W 074°07'0 0.0
2016-May-19 22:33N 39°45' W 074°07'1 1.5
2016-May-19 21:33N 39°45' W 074°05'6 6.2
2016-May-19 20:34N 39°40' W 074°09'4 4.2
2016-May-19 19:34N 39°37' W 074°12'0 0.4
2016-May-19 18:34N 39°36' W 074°12'0 0.1
2016-May-19 17:33N 39°36' W 074°12'0 0.1
2016-May-19 16:34N 39°36' W 074°12'4 3.7
2016-May-19 15:34N 39°39' W 074°09'6 5.8
2016-May-19 14:34N 39°44' W 074°05'1 1.4
2016-May-19 13:33N 39°45' W 074°07'1 0.7
2016-May-19 12:34N 39°46' W 074°07'1 0.5
2016-May-19 10:33N 39°45' W 074°05'1 1.2
2016-May-19 09:33N 39°45' W 074°07'0 0.0
2016-May-19 08:34N 39°45' W 074°07'0 0.0
2016-May-19 07:34N 39°45' W 074°07'0 0.0
2016-May-19 06:33N 39°45' W 074°07'0 0.0
2016-May-19 05:33N 39°45' W 074°07'0 0.0
2016-May-19 04:33N 39°45' W 074°07'0 0.0
2016-May-19 03:34N 39°45' W 074°07'0 0.0
2016-May-19 02:33N 39°45' W 074°07'0 0.0
2016-May-19 01:34N 39°45' W 074°07'0 0.0
2016-May-19 00:34N 39°45' W 074°07'0 0.0
2016-May-18 23:34N 39°45' W 074°07'0 0.0
2016-May-18 22:33N 39°45' W 074°07'2 1.8
2016-May-18 21:34N 39°44' W 074°05'5 4.9
2016-May-18 20:34N 39°39' W 074°09'3 3.1
2016-May-18 19:33N 39°37' W 074°11'0 0.1
2016-May-18 18:33N 39°37' W 074°11'3 3.2
2016-May-18 17:34N 39°34' W 074°13'3 2.6
2016-May-18 16:31N 39°32' W 074°15'0 0.2
2016-May-18 15:34N 39°32' W 074°15'1 1.4
2016-May-18 14:29N 39°31' W 074°15'1 0.5
2016-May-18 13:13N 39°30' W 074°15'1 1.1
2016-May-18 12:28N 39°30' W 074°14'1 0.8
2016-May-18 11:28N 39°31' W 074°14'0 0.3
2016-May-18 10:30N 39°31' W 074°15'1 0.4
2016-May-18 08:13N 39°31' W 074°16'0 0.1
2016-May-18 07:26N 39°31' W 074°16'0 0.3
2016-May-18 06:34N 39°30' W 074°16'  
Track history (hours):
 
Tides and Currents Weather Stations Pressure Air Temp Water Temp Dewpoint Dewpoint Depression Visibility Wind Speed Wind Dir Waves Ship Positions

Brangus

Owner: Great Lakes Dredge & Dock Company, Oak Brook, IL. More information available from US FCC via Universal Licensing System and Coast Guard Vessel Documentation Center.

Last reported at 2016-May-27 22:33 UTC. Time now 2016-May-28 06:01 UTC.
Position N 39°55' W 074°03'.

; draft 3 m.

MMSI: 366899270.

Date/timePositionNaut miles runAvg speedWind from/ knotsBaromVisibWave heightAir tempDewpointWater temp
2016-May-27 22:33N 39°55' W 074°03'9 8.8
2016-May-27 21:34N 39°47' W 074°05'2 2.0
2016-May-27 20:33N 39°45' W 074°07'1 0.5
2016-May-27 19:34N 39°46' W 074°07'0 0.0
2016-May-27 18:33N 39°46' W 074°07'0 0.0
2016-May-27 17:34N 39°46' W 074°07'0 0.0
2016-May-27 16:34N 39°46' W 074°07'0 0.4
2016-May-27 15:34N 39°45' W 074°07'0 0.2
2016-May-27 14:34N 39°45' W 074°07'0 0.0
2016-May-27 13:34N 39°45' W 074°07'0 0.0
2016-May-27 12:34N 39°45' W 074°07'0 0.0
2016-May-27 11:34N 39°45' W 074°07'0 0.0
2016-May-27 10:34N 39°45' W 074°07'0 0.0
2016-May-27 09:34N 39°45' W 074°07'0 0.0
2016-May-27 08:34N 39°45' W 074°07'0 0.0
2016-May-27 07:34N 39°45' W 074°07'0 0.0
2016-May-27 06:33N 39°45' W 074°07'0 0.0
2016-May-27 05:34N 39°45' W 074°07'0 0.0
2016-May-27 04:33N 39°45' W 074°07'0 0.0
2016-May-27 03:33N 39°45' W 074°07'0 0.0
2016-May-27 02:33N 39°45' W 074°07'0 0.0
2016-May-27 01:33N 39°45' W 074°07'1 1.1
2016-May-27 00:34N 39°46' W 074°07'2 2.2
2016-May-26 23:34N 39°45' W 074°05'5 5.2
2016-May-26 22:34N 39°40' W 074°08'0 0.1
2016-May-26 21:34N 39°40' W 074°08'1 0.5
2016-May-26 20:33N 39°40' W 074°09'0 0.3
2016-May-26 19:33N 39°40' W 074°09'0 0.2
2016-May-26 18:34N 39°40' W 074°09'0 0.2
2016-May-26 17:34N 39°40' W 074°09'0 0.3
2016-May-26 16:34N 39°40' W 074°09'0 0.1
2016-May-26 15:34N 39°40' W 074°09'0 0.1
2016-May-26 14:34N 39°40' W 074°09'2 1.9
2016-May-26 13:33N 39°41' W 074°08'5 4.6
2016-May-26 12:33N 39°46' W 074°06'1 1.0
2016-May-26 11:34N 39°45' W 074°07'0 0.0
2016-May-26 10:25N 39°45' W 074°07'0 0.0
2016-May-26 09:32N 39°45' W 074°07'0 0.0
2016-May-26 08:33N 39°45' W 074°07'0 0.0
2016-May-26 07:33N 39°45' W 074°07'0 0.0
2016-May-26 06:33N 39°45' W 074°07'0 0.0
2016-May-26 05:33N 39°45' W 074°07'0 0.0
2016-May-26 04:34N 39°45' W 074°07'0 0.0
2016-May-26 03:34N 39°45' W 074°07'0 0.0
2016-May-26 02:34N 39°45' W 074°07'0 0.0
2016-May-26 01:31N 39°45' W 074°07'0 0.0
2016-May-26 00:34N 39°45' W 074°07'0 0.0
2016-May-25 23:34N 39°45' W 074°07'0 0.0
2016-May-25 22:28N 39°45' W 074°07'0 0.0
2016-May-25 21:33N 39°45' W 074°07'0 0.0
2016-May-25 20:33N 39°45' W 074°07'0 0.0
2016-May-25 19:34N 39°45' W 074°07'1 1.1
2016-May-25 18:33N 39°46' W 074°07'2 2.3
2016-May-25 17:34N 39°44' W 074°05'5 4.9
2016-May-25 16:34N 39°40' W 074°08'5 4.8
2016-May-25 15:34N 39°36' W 074°12'1 0.8
2016-May-25 14:10N 39°35' W 074°13'3 4.3
2016-May-25 13:33N 39°37' W 074°11'5 4.8
2016-May-25 12:34N 39°41' W 074°07'5 4.7
2016-May-25 11:33N 39°46' W 074°04'3 2.7
2016-May-25 10:34N 39°48' W 074°04'0 0.4
2016-May-25 09:24N 39°48' W 074°04'2 2.4
2016-May-25 08:34N 39°50' W 074°03'2 1.5
2016-May-25 07:34N 39°49' W 074°02'2 1.1
2016-May-25 05:34N 39°51' W 074°04'3 2.8
2016-May-25 04:32N 39°54' W 074°03'35 1.7
2016-May-24 08:05N 40°29' W 074°03'3 5.0
2016-May-24 07:30N 40°32' W 074°02'6 6.7
2016-May-24 06:33N 40°38' W 074°04'4 4.1
2016-May-24 05:33N 40°38' W 074°09'0 0.0
2016-May-24 04:33N 40°38' W 074°09'0 0.0
2016-May-24 03:33N 40°38' W 074°09'0 0.0
2016-May-24 02:33N 40°38' W 074°09'0 0.0
2016-May-24 01:33N 40°38' W 074°09'0 0.0
2016-May-24 00:33N 40°38' W 074°09'0 0.0
2016-May-23 23:33N 40°38' W 074°09'0 0.0
2016-May-23 21:32N 40°38' W 074°09'0 0.0
2016-May-23 20:21N 40°38' W 074°09'1 0.3
2016-May-23 17:33N 40°39' W 074°08'4 4.3
2016-May-23 16:33N 40°39' W 074°02'4 3.6
2016-May-23 15:30N 40°39' W 074°07'1 1.3
2016-May-23 14:33N 40°38' W 074°09'0 0.0
2016-May-23 10:30N 40°38' W 074°09'0 0.0
2016-May-23 09:30N 40°38' W 074°09'0 0.0
2016-May-23 07:33N 40°38' W 074°09'0 0.0
2016-May-23 06:33N 40°38' W 074°09'0 0.0
2016-May-23 00:22N 40°38' W 074°09'0 0.0
2016-May-22 15:33N 40°38' W 074°09'0 0.0
2016-May-22 14:33N 40°38' W 074°09'3 0.1
2016-May-21 19:33N 40°39' W 074°06'32 7.6
2016-May-21 15:24N 40°08' W 074°00'9 8.8
2016-May-21 14:22N 39°59' W 074°02'7 8.7
2016-May-21 13:34N 39°52' W 074°04'6 6.4
2016-May-21 12:34N 39°46' W 074°07'1 0.5
2016-May-21 11:33N 39°45' W 074°07'0 0.0
2016-May-21 10:33N 39°45' W 074°07'0 0.0
2016-May-21 09:33N 39°45' W 074°07'0 0.0
2016-May-21 08:33N 39°45' W 074°07'0 0.0
2016-May-21 07:33N 39°45' W 074°07'0 0.0
2016-May-21 04:33N 39°45' W 074°07'0 0.0
2016-May-21 03:34N 39°45' W 074°07'0 0.0
2016-May-21 02:24N 39°45' W 074°07'0 0.0
2016-May-21 01:33N 39°45' W 074°07'2 1.5
2016-May-21 00:33N 39°45' W 074°05'5 5.3
2016-May-20 23:34N 39°41' W 074°08'1 0.6
2016-May-20 22:34N 39°40' W 074°09'0 0.3
2016-May-20 21:34N 39°40' W 074°09'2 2.4
2016-May-20 20:34N 39°38' W 074°11'2 1.7
2016-May-20 19:34N 39°37' W 074°12'2 2.0
2016-May-20 18:34N 39°35' W 074°13'3 3.2
2016-May-20 17:34N 39°32' W 074°15'1 1.4
2016-May-20 16:33N 39°33' W 074°14'6 5.8
2016-May-20 15:34N 39°38' W 074°10'6 5.9
2016-May-20 14:34N 39°43' W 074°06'2 2.0
2016-May-20 13:34N 39°45' W 074°07'1 1.4
2016-May-20 12:33N 39°46' W 074°05'2 1.6
2016-May-20 11:34N 39°46' W 074°07'1 0.7
2016-May-20 10:34N 39°45' W 074°07'0 0.0
2016-May-20 09:34N 39°45' W 074°07'0 0.0
2016-May-20 08:33N 39°45' W 074°07'0 0.0
2016-May-20 07:34N 39°45' W 074°07'0 0.0
2016-May-20 06:34N 39°45' W 074°07'0 0.0
2016-May-20 05:33N 39°45' W 074°07'0 0.0
2016-May-20 04:34N 39°45' W 074°07'0 0.0
2016-May-20 03:34N 39°45' W 074°07'0 0.0
2016-May-20 02:33N 39°45' W 074°07'0 0.0
2016-May-20 01:34N 39°45' W 074°07'0 0.0
2016-May-20 00:34N 39°45' W 074°07'0 0.0
2016-May-19 23:33N 39°45' W 074°07'0 0.0
2016-May-19 22:33N 39°45' W 074°07'1 1.5
2016-May-19 21:33N 39°45' W 074°05'6 6.2
2016-May-19 20:34N 39°40' W 074°09'4 4.2
2016-May-19 19:34N 39°37' W 074°12'0 0.4
2016-May-19 18:34N 39°36' W 074°12'0 0.1
2016-May-19 17:33N 39°36' W 074°12'0 0.1
2016-May-19 16:34N 39°36' W 074°12'4 3.7
2016-May-19 15:34N 39°39' W 074°09'6 5.8
2016-May-19 14:34N 39°44' W 074°05'1 1.4
2016-May-19 13:33N 39°45' W 074°07'1 0.7
2016-May-19 12:34N 39°46' W 074°07'1 0.5
2016-May-19 10:33N 39°45' W 074°05'1 1.2
2016-May-19 09:33N 39°45' W 074°07'0 0.0
2016-May-19 08:34N 39°45' W 074°07'0 0.0
2016-May-19 07:34N 39°45' W 074°07'0 0.0
2016-May-19 06:33N 39°45' W 074°07'0 0.0
2016-May-19 05:33N 39°45' W 074°07'0 0.0
2016-May-19 04:33N 39°45' W 074°07'0 0.0
2016-May-19 03:34N 39°45' W 074°07'0 0.0
2016-May-19 02:33N 39°45' W 074°07'0 0.0
2016-May-19 01:34N 39°45' W 074°07'0 0.0
2016-May-19 00:34N 39°45' W 074°07'0 0.0
2016-May-18 23:34N 39°45' W 074°07'0 0.0
2016-May-18 22:33N 39°45' W 074°07'2 1.8
2016-May-18 21:34N 39°44' W 074°05'5 4.9
2016-May-18 20:34N 39°39' W 074°09'3 3.1
2016-May-18 19:33N 39°37' W 074°11'0 0.1
2016-May-18 18:33N 39°37' W 074°11'3 3.2
2016-May-18 17:34N 39°34' W 074°13'3 2.6
2016-May-18 16:31N 39°32' W 074°15'0 0.2
2016-May-18 15:34N 39°32' W 074°15'1 1.4
2016-May-18 14:29N 39°31' W 074°15'1 0.5
2016-May-18 13:13N 39°30' W 074°15'1 1.1
2016-May-18 12:28N 39°30' W 074°14'1 0.8
2016-May-18 11:28N 39°31' W 074°14'0 0.3
2016-May-18 10:30N 39°31' W 074°15'1 0.4
2016-May-18 08:13N 39°31' W 074°16'0 0.1
2016-May-18 07:26N 39°31' W 074°16'0 0.3
2016-May-18 06:34N 39°30' W 074°16'  

Dump ship's entire track history